Pine Valley, Mississippi
Current Conditions -  °F | °C
As of 7:15 AM on Sunday 23 Nov 2014 (Local Time) from KUOX Reporting Station
Haze Haze  
Wind Chill: 55°   Ceiling: 500
Heat Index: 55°   Visibility: 2.5mi
Dew Point: 54°   Wind: 10mph
Humidity: 94%   Direction: 140°SE
Pressure: 29.78"   Gusts: 16mph
Location:  34.142°N, 89.6332°W
Report Text: KUOX 231315Z AUTO 14009G14KT 2 1/2SM BR OVC005 13/12 A2978 RMK AO2 PWINO PNO
Loading
Personal Weather Stations






























Interactive Weather Map New forecast layout! Learn more

10-Day Weather Forecast

Advertisements
Track Severe Weather on mobile